Durrie Airport


Codes: YDRI/DRR
Name: Durrie Airport
City:
Country: Australia
Elevation: 58 ft.

Photos at Durrie Airport


   Photos courtesy of SpottingLog. You can add your own sightings and photos by signing up for a free trial today.



No photos found.

Weather at Durrie Airport


Time (UTC)DescriptionTempratureWindCloud coverageVisibilityPressureHumidity
16-Jun-2024 03:00Clear Sky18°C9 mph, S0%10000m1021hPa50%
16-Jun-2024 06:00Clear Sky19°C11 mph, S0%10000m1020hPa44%
16-Jun-2024 09:00Clear Sky18°C11 mph, S2%10000m1021hPa48%
16-Jun-2024 12:00Clear Sky16°C9 mph, S1%10000m1021hPa54%
16-Jun-2024 15:00Clear Sky14°C9 mph, S2%10000m1021hPa60%
16-Jun-2024 18:00Clear Sky13°C9 mph, S1%10000m1021hPa61%
16-Jun-2024 21:00Clear Sky12°C9 mph, SE0%10000m1022hPa65%
17-Jun-2024 00:00Clear Sky15°C9 mph, SE0%10000m1023hPa51%
17-Jun-2024 03:00Clear Sky18°C7 mph, SE0%10000m1021hPa40%
17-Jun-2024 06:00Clear Sky19°C9 mph, SE0%10000m1020hPa34%
17-Jun-2024 09:00Clear Sky17°C9 mph, S0%10000m1021hPa39%
17-Jun-2024 12:00Clear Sky16°C7 mph, SE0%10000m1022hPa44%
17-Jun-2024 15:00Clear Sky14°C9 mph, SE0%10000m1022hPa47%
17-Jun-2024 18:00Clear Sky13°C7 mph, SE10%10000m1022hPa47%
17-Jun-2024 21:00Few Clouds12°C9 mph, E22%10000m1022hPa41%
18-Jun-2024 00:00Scattered Clouds15°C9 mph, E27%10000m1023hPa30%
18-Jun-2024 03:00Overcast Clouds19°C7 mph, E93%10000m1020hPa23%
18-Jun-2024 06:00Broken Clouds20°C4 mph, NE59%10000m1018hPa21%
18-Jun-2024 09:00Broken Clouds18°C4 mph, E51%10000m1019hPa24%
18-Jun-2024 12:00Broken Clouds17°C4 mph, NE56%10000m1020hPa25%
18-Jun-2024 15:00Scattered Clouds16°C7 mph, NE32%10000m1019hPa25%
18-Jun-2024 18:00Scattered Clouds15°C7 mph, N38%10000m1018hPa27%
18-Jun-2024 21:00Broken Clouds15°C7 mph, N83%10000m1018hPa28%
19-Jun-2024 00:00Overcast Clouds19°C9 mph, NW89%10000m1019hPa24%
19-Jun-2024 03:00Scattered Clouds23°C9 mph, NW47%10000m1017hPa23%
19-Jun-2024 06:00Broken Clouds24°C9 mph, W52%10000m1015hPa25%
19-Jun-2024 09:00Scattered Clouds21°C9 mph, SW39%10000m1017hPa33%
19-Jun-2024 12:00Broken Clouds19°C9 mph, SW63%10000m1018hPa43%
19-Jun-2024 15:00Overcast Clouds18°C9 mph, SW99%10000m1018hPa64%
19-Jun-2024 18:00Overcast Clouds18°C9 mph, SW100%10000m1018hPa61%
19-Jun-2024 21:00Overcast Clouds16°C11 mph, SW98%10000m1020hPa52%
20-Jun-2024 00:00Overcast Clouds17°C13 mph, S97%10000m1022hPa46%
20-Jun-2024 03:00Overcast Clouds19°C16 mph, SW95%10000m1021hPa37%
20-Jun-2024 06:00Overcast Clouds19°C18 mph, SW94%10000m1020hPa34%
20-Jun-2024 09:00Overcast Clouds16°C13 mph, SW97%10000m1022hPa37%
20-Jun-2024 12:00Overcast Clouds15°C11 mph, SW99%10000m1023hPa43%
20-Jun-2024 15:00Overcast Clouds14°C7 mph, SW100%10000m1023hPa48%
20-Jun-2024 18:00Overcast Clouds12°C9 mph, S89%10000m1024hPa53%
20-Jun-2024 21:00Overcast Clouds11°C7 mph, S94%10000m1025hPa53%
21-Jun-2024 00:00Overcast Clouds14°C9 mph, S96%10000m1027hPa42%